Adventuress — WCX8691 — position and weather

sailwx.info

Track history (hours):
 
Tides and Currents Weather Stations Pressure Air Temp Water Temp Dewpoint Dewpoint Depression Visibility Wind Speed Wind Dir Waves Ship Positions

Adventuress (United States)

Ship's website: http://www.soundexp.org/

More information available from US FCC via Universal Licensing System and Coast Guard Vessel Documentation Center.

Last reported at 2014-Sep-30 21:33 UTC. Time now 2014-Sep-30 21:53 UTC.
Position N 47°23' W 122°23'.

Length 43 m.

Type: Passenger vessel. MMSI: 367323180.

Date/timePositionNaut miles runAvg speedWind from/ knotsBaromVisibWave heightAir tempDewpointWater temp
2014-Sep-30 21:33N 47°23' W 122°23'0 0.3
2014-Sep-30 20:33N 47°23' W 122°23'5 4.7
2014-Sep-30 19:33N 47°28' W 122°25'2 2.1
2014-Sep-30 18:32N 47°30' W 122°24'8 0.4
2014-Sep-30 00:27N 47°37' W 122°23'0 0.0
2014-Sep-28 23:24N 47°38' W 122°23'1 0.2
2014-Sep-28 19:58N 47°37' W 122°23'0 1.0
2014-Sep-28 19:31N 47°37' W 122°23'1 2.7
2014-Sep-28 19:04N 47°37' W 122°25'1 1.0
2014-Sep-28 18:33N 47°37' W 122°25'0 4.1
2014-Sep-28 18:32N 47°37' W 122°25'1 0.0
2014-Sep-26 16:58N 47°37' W 122°23'5 2.1
2014-Sep-26 14:42N 47°37' W 122°30'1 4.2
2014-Sep-26 14:31N 47°37' W 122°31'0 1.6
2014-Sep-26 14:17N 47°37' W 122°31'0 0.0
2014-Sep-26 11:26N 47°37' W 122°31'0 0.0
2014-Sep-26 11:26N 47°37' W 122°31'0 0.0
2014-Sep-26 10:32N 47°37' W 122°31'0 0.0
2014-Sep-26 09:23N 47°37' W 122°31'0 0.0
2014-Sep-26 08:20N 47°37' W 122°31'0 0.0
2014-Sep-26 08:20N 47°37' W 122°31'0 0.0
2014-Sep-26 07:32N 47°37' W 122°31'0 0.0
2014-Sep-26 07:20N 47°37' W 122°31'0 0.0
2014-Sep-26 06:11N 47°37' W 122°31'0 0.0
2014-Sep-26 05:11N 47°37' W 122°31'0 0.0
2014-Sep-26 04:59N 47°37' W 122°31'0 0.0
2014-Sep-26 04:29N 47°37' W 122°31'0 0.0
2014-Sep-26 04:29N 47°37' W 122°31'0 0.0
2014-Sep-26 03:05N 47°37' W 122°31'0 0.0
2014-Sep-26 00:23N 47°37' W 122°31'0 0.0
2014-Sep-26 00:05N 47°37' W 122°31'0 0.0
2014-Sep-25 23:26N 47°37' W 122°31'0 0.0
2014-Sep-25 23:05N 47°37' W 122°31'0 0.0
2014-Sep-25 22:32N 47°37' W 122°31'0 0.0
2014-Sep-25 21:59N 47°37' W 122°31'0 0.0
2014-Sep-25 21:29N 47°37' W 122°31'0 0.0
2014-Sep-25 21:29N 47°37' W 122°31'0 0.2
2014-Sep-25 20:32N 47°37' W 122°31'0 1.7
2014-Sep-25 20:29N 47°37' W 122°31'1 1.6
2014-Sep-25 19:33N 47°38' W 122°29'0 5.0
2014-Sep-25 19:29N 47°38' W 122°29'2 1.8
2014-Sep-25 18:32N 47°40' W 122°29'0 3.1
2014-Sep-25 18:29N 47°40' W 122°29'1 0.7
2014-Sep-25 17:33N 47°41' W 122°29'0 1.2
2014-Sep-25 17:29N 47°41' W 122°28'3 2.9
2014-Sep-25 16:32N 47°43' W 122°31'0 4.5
2014-Sep-25 16:29N 47°43' W 122°31'1 0.7
2014-Sep-25 15:31N 47°43' W 122°32'0 0.0
2014-Sep-25 15:13N 47°43' W 122°32'0 0.0
2014-Sep-25 14:31N 47°43' W 122°32'0 0.1
2014-Sep-25 14:28N 47°43' W 122°32'0 0.0
2014-Sep-25 13:31N 47°43' W 122°32'0 0.0
2014-Sep-25 13:28N 47°43' W 122°32'0 0.0
2014-Sep-25 12:22N 47°43' W 122°32'0 0.0
2014-Sep-25 12:22N 47°43' W 122°32'0 0.0
2014-Sep-25 11:31N 47°43' W 122°32'0 0.0
2014-Sep-25 11:22N 47°43' W 122°32'0 0.0
2014-Sep-25 10:31N 47°43' W 122°32'0 0.0
2014-Sep-25 10:07N 47°43' W 122°32'0 0.0
2014-Sep-25 09:10N 47°43' W 122°32'0 0.0
2014-Sep-25 09:10N 47°43' W 122°32'0 0.0
2014-Sep-25 08:25N 47°43' W 122°32'0 0.0
2014-Sep-25 08:25N 47°43' W 122°32'0 0.0
2014-Sep-25 07:28N 47°43' W 122°32'0 0.0
2014-Sep-25 07:25N 47°43' W 122°32'0 0.0
2014-Sep-25 06:31N 47°43' W 122°32'0 0.0
2014-Sep-25 06:25N 47°43' W 122°32'0 0.0
2014-Sep-25 05:28N 47°43' W 122°32'0 0.0
2014-Sep-25 05:10N 47°43' W 122°32'0 0.0
2014-Sep-25 04:31N 47°43' W 122°32'0 0.0
2014-Sep-25 04:25N 47°43' W 122°32'0 0.0
2014-Sep-25 03:31N 47°43' W 122°32'0 0.0
2014-Sep-25 03:19N 47°43' W 122°32'0 0.0
2014-Sep-25 02:04N 47°43' W 122°32'0 0.0
2014-Sep-25 02:04N 47°43' W 122°32'0 0.0
2014-Sep-25 00:31N 47°43' W 122°32'0 0.0
2014-Sep-24 23:25N 47°43' W 122°32'0 0.0
2014-Sep-24 21:58N 47°43' W 122°32'0 0.0
2014-Sep-24 21:28N 47°43' W 122°32'0 0.0
2014-Sep-24 21:28N 47°43' W 122°32'1 1.0
2014-Sep-24 20:33N 47°43' W 122°31'0 0.0
2014-Sep-24 20:33N 47°43' W 122°31'0 0.5
2014-Sep-24 19:33N 47°43' W 122°30'0 3.1
2014-Sep-24 19:33N 47°43' W 122°30'5 4.5
2014-Sep-24 18:33N 47°39' W 122°29'0 0.0
2014-Sep-24 18:33N 47°39' W 122°29'6 4.8
2014-Sep-24 17:14N 47°33' W 122°31'1 4.4
2014-Sep-24 17:07N 47°32' W 122°31'0 0.0
2014-Sep-23 23:10N 47°32' W 122°31'0 0.0
2014-Sep-23 23:10N 47°32' W 122°31'1 1.2
2014-Sep-23 21:59N 47°34' W 122°30'1 0.9
2014-Sep-23 20:49N 47°34' W 122°29'2 1.5
2014-Sep-23 19:43N 47°35' W 122°27'1 2.0
2014-Sep-23 19:16N 47°35' W 122°28'1 4.6
2014-Sep-23 19:08N 47°36' W 122°29'1 1.8
2014-Sep-23 18:29N 47°36' W 122°30'0 2.1
2014-Sep-23 18:28N 47°36' W 122°30'1 0.1
2014-Sep-22 23:33N 47°37' W 122°31'4 3.6
2014-Sep-22 22:33N 47°37' W 122°26'2 0.9
2014-Sep-22 20:29N 47°37' W 122°23'0 0.2
2014-Sep-22 19:28N 47°37' W 122°23'1 0.6
2014-Sep-22 18:25N 47°37' W 122°22'1 0.8
2014-Sep-22 17:23N 47°38' W 122°23'1 0.0
2014-Sep-21 00:30N 47°38' W 122°24'1 0.3
2014-Sep-20 22:33N 47°37' W 122°23'  
Track history (hours):
 
Tides and Currents Weather Stations Pressure Air Temp Water Temp Dewpoint Dewpoint Depression Visibility Wind Speed Wind Dir Waves Ship Positions

Adventuress (United States)

Ship's website: http://www.soundexp.org/

More information available from US FCC via Universal Licensing System and Coast Guard Vessel Documentation Center.

Last reported at 2014-Sep-30 21:33 UTC. Time now 2014-Sep-30 21:53 UTC.
Position N 47°23' W 122°23'.

Length 43 m.

Type: Passenger vessel. MMSI: 367323180.

Date/timePositionNaut miles runAvg speedWind from/ knotsBaromVisibWave heightAir tempDewpointWater temp
2014-Sep-30 21:33N 47°23' W 122°23'0 0.3
2014-Sep-30 20:33N 47°23' W 122°23'5 4.7
2014-Sep-30 19:33N 47°28' W 122°25'2 2.1
2014-Sep-30 18:32N 47°30' W 122°24'8 0.4
2014-Sep-30 00:27N 47°37' W 122°23'0 0.0
2014-Sep-28 23:24N 47°38' W 122°23'1 0.2
2014-Sep-28 19:58N 47°37' W 122°23'0 1.0
2014-Sep-28 19:31N 47°37' W 122°23'1 2.7
2014-Sep-28 19:04N 47°37' W 122°25'1 1.0
2014-Sep-28 18:33N 47°37' W 122°25'0 4.1
2014-Sep-28 18:32N 47°37' W 122°25'1 0.0
2014-Sep-26 16:58N 47°37' W 122°23'5 2.1
2014-Sep-26 14:42N 47°37' W 122°30'1 4.2
2014-Sep-26 14:31N 47°37' W 122°31'0 1.6
2014-Sep-26 14:17N 47°37' W 122°31'0 0.0
2014-Sep-26 11:26N 47°37' W 122°31'0 0.0
2014-Sep-26 11:26N 47°37' W 122°31'0 0.0
2014-Sep-26 10:32N 47°37' W 122°31'0 0.0
2014-Sep-26 09:23N 47°37' W 122°31'0 0.0
2014-Sep-26 08:20N 47°37' W 122°31'0 0.0
2014-Sep-26 08:20N 47°37' W 122°31'0 0.0
2014-Sep-26 07:32N 47°37' W 122°31'0 0.0
2014-Sep-26 07:20N 47°37' W 122°31'0 0.0
2014-Sep-26 06:11N 47°37' W 122°31'0 0.0
2014-Sep-26 05:11N 47°37' W 122°31'0 0.0
2014-Sep-26 04:59N 47°37' W 122°31'0 0.0
2014-Sep-26 04:29N 47°37' W 122°31'0 0.0
2014-Sep-26 04:29N 47°37' W 122°31'0 0.0
2014-Sep-26 03:05N 47°37' W 122°31'0 0.0
2014-Sep-26 00:23N 47°37' W 122°31'0 0.0
2014-Sep-26 00:05N 47°37' W 122°31'0 0.0
2014-Sep-25 23:26N 47°37' W 122°31'0 0.0
2014-Sep-25 23:05N 47°37' W 122°31'0 0.0
2014-Sep-25 22:32N 47°37' W 122°31'0 0.0
2014-Sep-25 21:59N 47°37' W 122°31'0 0.0
2014-Sep-25 21:29N 47°37' W 122°31'0 0.0
2014-Sep-25 21:29N 47°37' W 122°31'0 0.2
2014-Sep-25 20:32N 47°37' W 122°31'0 1.7
2014-Sep-25 20:29N 47°37' W 122°31'1 1.6
2014-Sep-25 19:33N 47°38' W 122°29'0 5.0
2014-Sep-25 19:29N 47°38' W 122°29'2 1.8
2014-Sep-25 18:32N 47°40' W 122°29'0 3.1
2014-Sep-25 18:29N 47°40' W 122°29'1 0.7
2014-Sep-25 17:33N 47°41' W 122°29'0 1.2
2014-Sep-25 17:29N 47°41' W 122°28'3 2.9
2014-Sep-25 16:32N 47°43' W 122°31'0 4.5
2014-Sep-25 16:29N 47°43' W 122°31'1 0.7
2014-Sep-25 15:31N 47°43' W 122°32'0 0.0
2014-Sep-25 15:13N 47°43' W 122°32'0 0.0
2014-Sep-25 14:31N 47°43' W 122°32'0 0.1
2014-Sep-25 14:28N 47°43' W 122°32'0 0.0
2014-Sep-25 13:31N 47°43' W 122°32'0 0.0
2014-Sep-25 13:28N 47°43' W 122°32'0 0.0
2014-Sep-25 12:22N 47°43' W 122°32'0 0.0
2014-Sep-25 12:22N 47°43' W 122°32'0 0.0
2014-Sep-25 11:31N 47°43' W 122°32'0 0.0
2014-Sep-25 11:22N 47°43' W 122°32'0 0.0
2014-Sep-25 10:31N 47°43' W 122°32'0 0.0
2014-Sep-25 10:07N 47°43' W 122°32'0 0.0
2014-Sep-25 09:10N 47°43' W 122°32'0 0.0
2014-Sep-25 09:10N 47°43' W 122°32'0 0.0
2014-Sep-25 08:25N 47°43' W 122°32'0 0.0
2014-Sep-25 08:25N 47°43' W 122°32'0 0.0
2014-Sep-25 07:28N 47°43' W 122°32'0 0.0
2014-Sep-25 07:25N 47°43' W 122°32'0 0.0
2014-Sep-25 06:31N 47°43' W 122°32'0 0.0
2014-Sep-25 06:25N 47°43' W 122°32'0 0.0
2014-Sep-25 05:28N 47°43' W 122°32'0 0.0
2014-Sep-25 05:10N 47°43' W 122°32'0 0.0
2014-Sep-25 04:31N 47°43' W 122°32'0 0.0
2014-Sep-25 04:25N 47°43' W 122°32'0 0.0
2014-Sep-25 03:31N 47°43' W 122°32'0 0.0
2014-Sep-25 03:19N 47°43' W 122°32'0 0.0
2014-Sep-25 02:04N 47°43' W 122°32'0 0.0
2014-Sep-25 02:04N 47°43' W 122°32'0 0.0
2014-Sep-25 00:31N 47°43' W 122°32'0 0.0
2014-Sep-24 23:25N 47°43' W 122°32'0 0.0
2014-Sep-24 21:58N 47°43' W 122°32'0 0.0
2014-Sep-24 21:28N 47°43' W 122°32'0 0.0
2014-Sep-24 21:28N 47°43' W 122°32'1 1.0
2014-Sep-24 20:33N 47°43' W 122°31'0 0.0
2014-Sep-24 20:33N 47°43' W 122°31'0 0.5
2014-Sep-24 19:33N 47°43' W 122°30'0 3.1
2014-Sep-24 19:33N 47°43' W 122°30'5 4.5
2014-Sep-24 18:33N 47°39' W 122°29'0 0.0
2014-Sep-24 18:33N 47°39' W 122°29'6 4.8
2014-Sep-24 17:14N 47°33' W 122°31'1 4.4
2014-Sep-24 17:07N 47°32' W 122°31'0 0.0
2014-Sep-23 23:10N 47°32' W 122°31'0 0.0
2014-Sep-23 23:10N 47°32' W 122°31'1 1.2
2014-Sep-23 21:59N 47°34' W 122°30'1 0.9
2014-Sep-23 20:49N 47°34' W 122°29'2 1.5
2014-Sep-23 19:43N 47°35' W 122°27'1 2.0
2014-Sep-23 19:16N 47°35' W 122°28'1 4.6
2014-Sep-23 19:08N 47°36' W 122°29'1 1.8
2014-Sep-23 18:29N 47°36' W 122°30'0 2.1
2014-Sep-23 18:28N 47°36' W 122°30'1 0.1
2014-Sep-22 23:33N 47°37' W 122°31'4 3.6
2014-Sep-22 22:33N 47°37' W 122°26'2 0.9
2014-Sep-22 20:29N 47°37' W 122°23'0 0.2
2014-Sep-22 19:28N 47°37' W 122°23'1 0.6
2014-Sep-22 18:25N 47°37' W 122°22'1 0.8
2014-Sep-22 17:23N 47°38' W 122°23'1 0.0
2014-Sep-21 00:30N 47°38' W 122°24'1 0.3
2014-Sep-20 22:33N 47°37' W 122°23'  

Dump ship's entire track history